createdAt,value
2022-09-26T00:02:01.657Z,98335.44
2022-09-26T00:07:06.532Z,98328.44
2022-09-26T00:12:11.164Z,98325.66
2022-09-26T00:17:15.619Z,98322.95
2022-09-26T00:22:19.832Z,98321.52
2022-09-26T00:27:24.996Z,98316.21
2022-09-26T00:32:28.627Z,98313.31
2022-09-26T00:37:32.841Z,98313.76
2022-09-26T00:42:36.279Z,98305.04
2022-09-26T00:47:58.386Z,98294.08
2022-09-26T00:53:07.255Z,98292.13
2022-09-26T00:58:35.645Z,98295.77
2022-09-26T01:03:45.376Z,98285.30
2022-09-26T01:09:00.767Z,98292.52
2022-09-26T01:14:09.539Z,98294.14
2022-09-26T01:19:39.636Z,98296.36
2022-09-26T01:24:53.583Z,98284.15
2022-09-26T01:30:10.119Z,98287.78
2022-09-26T01:35:57.655Z,98286.35
2022-09-26T01:41:29.827Z,98285.23
2022-09-26T01:47:12.534Z,98271.31
2022-09-26T01:52:38.055Z,98259.59
2022-09-26T01:57:55.087Z,98251.63
2022-09-26T02:03:01.883Z,98246.48
2022-09-26T02:08:11.954Z,98244.96
2022-09-26T02:13:35.567Z,98239.91
2022-09-26T02:18:45.664Z,98240.68
2022-09-26T02:23:51.441Z,98243.73
2022-09-26T02:28:54.393Z,98239.17
2022-09-26T02:33:57.386Z,98233.95
2022-09-26T02:39:02.079Z,98240.28
2022-09-26T02:45:03.500Z,98242.67
2022-09-26T02:50:09.353Z,98239.29
2022-09-26T02:55:24.681Z,98231.23
2022-09-26T03:00:36.654Z,98227.16
2022-09-26T03:05:43.256Z,98222.01
2022-09-26T03:10:48.491Z,98212.86
2022-09-26T03:15:55.526Z,98206.58
2022-09-26T03:21:01.650Z,98199.16
2022-09-26T03:26:10.225Z,98188.27
2022-09-26T03:31:14.173Z,98184.34
2022-09-26T03:36:28.610Z,98172.95
2022-09-26T03:41:31.885Z,98166.06
2022-09-26T03:47:07.581Z,98163.07
2022-09-26T03:52:14.976Z,98156.31
2022-09-26T03:57:19.886Z,98153.71
2022-09-26T04:02:34.186Z,98154.48
2022-09-26T04:07:47.422Z,98159.95
2022-09-26T04:12:50.330Z,98167.92
2022-09-26T04:17:55.301Z,98170.73
2022-09-26T04:22:59.399Z,98166.84
2022-09-26T04:28:02.913Z,98164.46
2022-09-26T04:33:06.186Z,98162.54
2022-09-26T04:38:12.336Z,98161.64
2022-09-26T04:43:15.376Z,98156.94
2022-09-26T04:48:18.672Z,98154.17
2022-09-26T04:53:39.574Z,98143.27
2022-09-26T04:58:49.266Z,98145.04
2022-09-26T05:03:53.567Z,98142.91
2022-09-26T05:08:57.790Z,98134.23
2022-09-26T05:14:15.042Z,98126.80
2022-09-26T05:19:18.212Z,98121.77
2022-09-26T05:24:58.670Z,98116.11
2022-09-26T05:30:01.645Z,98115.91
2022-09-26T05:35:06.497Z,98116.71
2022-09-26T05:40:35.063Z,98114.25
2022-09-26T05:45:38.685Z,98121.11
2022-09-26T05:50:44.190Z,98121.43
2022-09-26T05:55:51.179Z,98122.90
2022-09-26T06:01:08.302Z,98126.20
2022-09-26T06:06:21.999Z,98123.48
2022-09-26T06:11:32.540Z,98120.48
2022-09-26T06:16:35.661Z,98117.60
2022-09-26T06:21:40.281Z,98115.03
2022-09-26T06:26:47.751Z,98111.27
2022-09-26T06:31:51.958Z,98104.02
2022-09-26T06:37:15.067Z,98099.66
2022-09-26T06:42:18.026Z,98105.46
2022-09-26T06:47:49.332Z,98107.89
2022-09-26T06:53:09.297Z,98110.91
2022-09-26T06:58:12.249Z,98106.43
2022-09-26T07:03:32.888Z,98106.53
2022-09-26T07:09:02.219Z,98104.20
2022-09-26T07:14:25.042Z,98103.58
2022-09-26T07:19:34.404Z,98105.03
2022-09-26T07:24:39.806Z,98101.78
2022-09-26T07:29:42.833Z,98097.98
2022-09-26T07:34:48.198Z,98094.80
2022-09-26T07:39:54.729Z,98094.27
2022-09-26T07:50:23.119Z,98098.59
2022-09-26T07:56:05.302Z,98092.55
2022-09-26T08:01:38.892Z,98097.00
2022-09-26T08:07:12.648Z,98092.39
2022-09-26T08:12:27.089Z,98095.30
2022-09-26T08:17:41.628Z,98100.38
2022-09-26T08:22:44.871Z,98093.60
2022-09-26T08:27:50.636Z,98085.56
2022-09-26T08:32:59.174Z,98086.44
2022-09-26T08:38:04.084Z,98088.04
2022-09-26T08:43:49.866Z,98086.58
2022-09-26T08:49:24.201Z,98088.05
2022-09-26T08:54:47.139Z,98086.95
2022-09-26T08:59:52.974Z,98089.05
2022-09-26T09:05:09.056Z,98090.86
2022-09-26T09:10:20.114Z,98088.73
2022-09-26T09:15:52.986Z,98093.38
2022-09-26T09:21:23.313Z,98094.28
2022-09-26T09:32:25.829Z,98097.29
2022-09-26T09:37:51.256Z,98098.66
2022-09-26T09:43:26.639Z,98102.77
2022-09-26T09:48:30.234Z,98100.95
2022-09-26T09:53:42.304Z,98097.77
2022-09-26T09:59:08.632Z,98096.87
2022-09-26T10:05:01.766Z,98093.23
2022-09-26T10:10:10.549Z,98092.02
2022-09-26T10:15:44.824Z,98093.18
2022-09-26T10:21:17.936Z,98090.11
2022-09-26T10:26:34.632Z,98085.09
2022-09-26T10:31:42.629Z,98075.58
2022-09-26T10:36:56.139Z,98071.67
2022-09-26T10:42:01.141Z,98068.94
2022-09-26T10:47:08.446Z,98069.95
2022-09-26T10:52:34.741Z,98057.00
2022-09-26T10:57:46.151Z,98051.66
2022-09-26T11:02:52.583Z,98052.90
2022-09-26T11:07:57.148Z,98045.02
2022-09-26T11:13:22.313Z,98041.67
2022-09-26T11:18:53.494Z,98039.11
2022-09-26T11:24:11.921Z,98038.10
2022-09-26T11:29:24.227Z,98033.39
2022-09-26T11:34:45.316Z,98027.80
2022-09-26T11:39:58.618Z,98024.23
2022-09-26T11:45:10.099Z,98007.90
2022-09-26T11:51:00.087Z,97997.89
2022-09-26T11:56:50.471Z,97996.29
2022-09-26T12:02:03.869Z,97993.69
2022-09-26T12:07:43.800Z,97992.02
2022-09-26T12:12:57.738Z,98002.66
2022-09-26T12:18:15.341Z,97993.75
2022-09-26T12:23:37.902Z,97995.32
2022-09-26T12:29:05.240Z,97989.16
2022-09-26T12:34:31.545Z,97991.78
2022-09-26T12:39:46.298Z,97994.52
2022-09-26T12:45:06.572Z,97988.68
2022-09-26T12:50:31.282Z,97980.36
2022-09-26T12:56:07.011Z,97976.71
2022-09-26T13:01:37.570Z,97978.41
2022-09-26T13:07:08.059Z,97981.35
2022-09-26T13:12:48.029Z,97981.11
2022-09-26T13:17:57.956Z,97984.51
2022-09-26T13:23:31.725Z,97983.56
2022-09-26T13:29:13.304Z,97978.85
2022-09-26T13:34:58.105Z,97969.57
2022-09-26T13:40:39.548Z,97969.16
2022-09-26T13:45:50.802Z,97961.42
2022-09-26T13:51:06.648Z,97959.15
2022-09-26T13:56:49.625Z,97953.06
2022-09-26T14:02:18.095Z,97939.31
2022-09-26T14:08:02.306Z,97932.77
2022-09-26T14:13:21.911Z,97929.55
2022-09-26T14:19:04.969Z,97926.09
2022-09-26T14:24:25.926Z,97921.27
2022-09-26T14:29:29.026Z,97919.11
2022-09-26T14:34:36.066Z,97917.83
2022-09-26T14:39:43.895Z,97920.42
2022-09-26T14:45:06.110Z,97917.80
2022-09-26T14:50:18.414Z,97912.66
2022-09-26T14:55:21.718Z,97910.11
2022-09-26T15:00:40.638Z,97910.86
2022-09-26T15:05:45.300Z,97914.64
2022-09-26T15:10:49.110Z,97911.30
2022-09-26T15:16:03.549Z,97904.59
2022-09-26T15:21:35.440Z,97905.66
2022-09-26T15:26:38.459Z,97901.71
2022-09-26T15:31:43.831Z,97901.34
2022-09-26T15:36:56.601Z,97906.42
2022-09-26T15:42:20.392Z,97897.61
2022-09-26T15:47:40.580Z,97898.98
2022-09-26T15:52:49.702Z,97902.89
2022-09-26T15:57:57.905Z,97907.70
2022-09-26T16:08:43.000Z,97908.02
2022-09-26T16:13:50.724Z,97909.02
2022-09-26T16:18:59.931Z,97905.15
2022-09-26T16:24:34.740Z,97899.44
2022-09-26T16:29:40.480Z,97903.41
2022-09-26T16:34:45.877Z,97901.46
2022-09-26T16:40:00.223Z,97905.07
2022-09-26T16:45:08.209Z,97910.16
2022-09-26T16:50:30.582Z,97906.54
2022-09-26T16:55:38.702Z,97904.86
2022-09-26T17:01:01.199Z,97901.91
2022-09-26T17:06:06.935Z,97901.74
2022-09-26T17:11:18.191Z,97904.34
2022-09-26T17:16:23.845Z,97902.85
2022-09-26T17:21:29.399Z,97899.23
2022-09-26T17:26:35.781Z,97893.92
2022-09-26T17:31:41.010Z,97892.31
2022-09-26T17:36:49.727Z,97894.98
2022-09-26T17:41:59.507Z,97901.27
2022-09-26T17:47:07.015Z,97902.37
2022-09-26T17:52:38.380Z,97906.27
2022-09-26T17:57:43.524Z,97909.25
2022-09-26T18:02:54.166Z,97912.34
2022-09-26T18:08:04.992Z,97907.17
2022-09-26T18:13:16.195Z,97902.41
2022-09-26T18:18:25.045Z,97899.20
2022-09-26T18:23:43.311Z,97895.93
2022-09-26T18:28:48.707Z,97894.81
2022-09-26T18:33:58.885Z,97903.88
2022-09-26T18:39:01.958Z,97909.61
2022-09-26T18:44:05.742Z,97906.20
2022-09-26T18:49:12.186Z,97910.23
2022-09-26T18:54:17.439Z,97909.58
2022-09-26T18:59:20.567Z,97911.61
2022-09-26T19:04:23.576Z,97917.77
2022-09-26T19:09:32.233Z,97913.31
2022-09-26T19:14:35.665Z,97910.57
2022-09-26T19:19:38.704Z,97904.33
2022-09-26T19:24:46.846Z,97898.95
2022-09-26T19:29:58.875Z,97896.19
2022-09-26T19:35:08.208Z,97894.36
2022-09-26T19:40:51.032Z,97894.17
2022-09-26T19:46:22.915Z,97897.71
2022-09-26T19:51:59.591Z,97897.13
2022-09-26T19:57:30.591Z,97899.02
2022-09-26T20:02:54.254Z,97900.25
2022-09-26T20:07:58.231Z,97908.05
2022-09-26T20:13:10.165Z,97902.71
2022-09-26T20:24:14.067Z,97901.05
2022-09-26T20:29:27.354Z,97910.42
2022-09-26T20:34:47.798Z,97920.69
2022-09-26T20:40:26.076Z,97926.21
2022-09-26T20:45:39.776Z,97928.02
2022-09-26T20:50:58.939Z,97928.41
2022-09-26T20:56:31.921Z,97929.34
2022-09-26T21:01:42.379Z,97921.35
2022-09-26T21:07:06.403Z,97918.77
2022-09-26T21:12:21.833Z,97912.59
2022-09-26T21:17:30.348Z,97912.61
2022-09-26T21:22:37.748Z,97910.50
2022-09-26T21:27:42.126Z,97904.30
2022-09-26T21:32:53.383Z,97908.70
2022-09-26T21:37:59.752Z,97903.09
2022-09-26T21:43:11.881Z,97900.59
2022-09-26T21:48:18.666Z,97899.25
2022-09-26T21:53:29.225Z,97894.61
2022-09-26T21:58:38.874Z,97886.77
2022-09-26T22:03:42.779Z,97882.45
2022-09-26T22:08:47.482Z,97876.35
2022-09-26T22:13:51.873Z,97877.81
2022-09-26T22:18:56.142Z,97870.60
2022-09-26T22:24:00.711Z,97867.13
2022-09-26T22:29:05.993Z,97856.30
2022-09-26T22:34:12.521Z,97854.06
2022-09-26T22:39:16.472Z,97850.48
2022-09-26T22:44:21.090Z,97838.13
2022-09-26T22:49:27.517Z,97826.97
2022-09-26T22:54:30.987Z,97825.62
2022-09-26T22:59:35.000Z,97826.46
2022-09-26T23:04:49.096Z,97822.63
2022-09-26T23:09:53.308Z,97819.98
2022-09-26T23:14:58.661Z,97815.42
2022-09-26T23:20:02.545Z,97811.06
2022-09-26T23:25:08.536Z,97809.17
2022-09-26T23:30:14.062Z,97811.58
2022-09-26T23:35:17.582Z,97807.17
2022-09-26T23:40:21.560Z,97805.45
2022-09-26T23:45:27.439Z,97807.80
2022-09-26T23:50:32.592Z,97804.04
2022-09-26T23:55:36.935Z,97803.69
